createdAt,value
2019-05-15T00:01:05.766Z,94484.84
2019-05-15T00:03:34.425Z,94486.40
2019-05-15T00:06:02.943Z,94481.02
2019-05-15T00:08:31.353Z,94482.23
2019-05-15T00:10:59.865Z,94487.28
2019-05-15T00:13:28.460Z,94476.25
2019-05-15T00:15:58.940Z,94475.14
2019-05-15T00:18:28.176Z,94473.97
2019-05-15T00:20:59.313Z,94470.14
2019-05-15T00:23:29.196Z,94471.09
2019-05-15T00:25:58.461Z,94464.35
2019-05-15T00:28:27.947Z,94463.81
2019-05-15T00:30:58.251Z,94463.25
2019-05-15T00:33:28.579Z,94456.28
2019-05-15T00:35:58.982Z,94455.88
2019-05-15T00:38:27.993Z,94454.64
2019-05-15T00:40:58.478Z,94454.80
2019-05-15T00:43:29.095Z,94441.42
2019-05-15T00:45:58.535Z,94440.72
2019-05-15T00:48:29.243Z,94436.48
2019-05-15T00:50:59.003Z,94429.47
2019-05-15T00:53:28.271Z,94430.83
2019-05-15T00:55:58.074Z,94420.23
2019-05-15T00:58:28.292Z,94424.95
2019-05-15T01:00:59.012Z,94412.23
2019-05-15T01:03:27.908Z,94416.16
2019-05-15T01:05:58.472Z,94412.05
2019-05-15T01:08:28.505Z,94413.00
2019-05-15T01:10:58.247Z,94401.52
2019-05-15T01:13:28.165Z,94406.86
2019-05-15T01:15:58.218Z,94402.75
2019-05-15T01:18:29.101Z,94399.05
2019-05-15T01:20:58.633Z,94392.38
2019-05-15T01:23:28.188Z,94398.80
2019-05-15T01:25:58.877Z,94387.95
2019-05-15T01:28:28.958Z,94390.14
2019-05-15T01:30:59.246Z,94388.09
2019-05-15T01:33:28.268Z,94381.32
2019-05-15T01:35:59.068Z,94379.04
2019-05-15T01:38:28.015Z,94383.25
2019-05-15T01:40:59.006Z,94381.32
2019-05-15T01:43:29.090Z,94379.73
2019-05-15T01:45:58.906Z,94382.61
2019-05-15T01:48:28.311Z,94377.48
2019-05-15T01:50:58.583Z,94378.44
2019-05-15T01:53:29.110Z,94372.38
2019-05-15T01:55:58.934Z,94378.50
2019-05-15T01:58:28.747Z,94379.09
2019-05-15T02:00:58.966Z,94373.79
2019-05-15T02:03:28.966Z,94368.20
2019-05-15T02:05:58.639Z,94376.91
2019-05-15T02:08:28.465Z,94367.71
2019-05-15T02:10:58.833Z,94366.72
2019-05-15T02:13:28.206Z,94363.66
2019-05-15T02:15:58.777Z,94368.13
2019-05-15T02:18:28.545Z,94366.08
2019-05-15T02:20:58.679Z,94364.05
2019-05-15T02:23:28.051Z,94368.07
2019-05-15T02:25:58.740Z,94357.41
2019-05-15T02:28:28.809Z,94360.48
2019-05-15T02:30:58.771Z,94356.00
2019-05-15T02:33:30.092Z,94353.93
2019-05-15T02:35:59.457Z,94355.41
2019-05-15T02:38:29.606Z,94348.75
2019-05-15T02:40:59.209Z,94348.44
2019-05-15T02:43:29.897Z,94341.80
2019-05-15T02:46:00.487Z,94341.53
2019-05-15T02:48:29.125Z,94342.24
2019-05-15T02:50:58.917Z,94333.86
2019-05-15T02:53:30.070Z,94333.77
2019-05-15T02:56:00.071Z,94330.75
2019-05-15T02:58:29.161Z,94332.30
2019-05-15T03:00:59.312Z,94328.39
2019-05-15T03:03:29.471Z,94330.13
2019-05-15T03:06:00.231Z,94328.02
2019-05-15T03:08:29.767Z,94326.20
2019-05-15T03:10:59.215Z,94328.53
2019-05-15T03:13:29.787Z,94329.47
2019-05-15T03:15:59.980Z,94322.84
2019-05-15T03:18:30.275Z,94318.94
2019-05-15T03:21:00.439Z,94317.40
2019-05-15T03:23:29.780Z,94316.23
2019-05-15T03:26:03.056Z,94319.88
2019-05-15T03:28:29.411Z,94314.03
2019-05-15T03:31:33.366Z,94312.98
2019-05-15T03:33:35.822Z,94313.77
2019-05-15T03:36:02.875Z,94305.84
2019-05-15T03:38:30.074Z,94313.25
2019-05-15T03:40:59.759Z,94311.65
2019-05-15T03:43:29.228Z,94311.96
2019-05-15T03:46:01.151Z,94312.04
2019-05-15T03:48:28.991Z,94295.53
2019-05-15T03:50:59.687Z,94295.53
2019-05-15T03:53:29.886Z,94308.89
2019-05-15T03:55:59.132Z,94312.69
2019-05-15T03:58:28.747Z,94305.23
2019-05-15T04:01:00.197Z,94310.34
2019-05-15T04:03:30.139Z,94316.41
2019-05-15T04:06:00.488Z,94317.86
2019-05-15T04:08:29.959Z,94321.67
2019-05-15T04:10:59.712Z,94313.63
2019-05-15T04:13:30.081Z,94316.58
2019-05-15T04:15:59.514Z,94311.34
2019-05-15T04:18:29.192Z,94311.34
2019-05-15T04:21:00.246Z,94301.86
2019-05-15T04:23:30.065Z,94309.20
2019-05-15T04:25:59.053Z,94305.59
2019-05-15T04:28:29.492Z,94304.15
2019-05-15T04:30:59.614Z,94302.97
2019-05-15T04:33:29.346Z,94301.84
2019-05-15T04:35:59.022Z,94302.85
2019-05-15T04:38:29.254Z,94305.86
2019-05-15T04:40:59.009Z,94307.12
2019-05-15T04:43:30.147Z,94301.80
2019-05-15T04:45:59.235Z,94305.20
2019-05-15T04:48:28.994Z,94300.72
2019-05-15T04:50:58.821Z,94297.28
2019-05-15T04:53:29.499Z,94298.52
2019-05-15T04:55:59.736Z,94296.62
2019-05-15T04:58:29.628Z,94296.27
2019-05-15T05:00:59.824Z,94303.72
2019-05-15T05:03:29.470Z,94307.61
2019-05-15T05:05:59.131Z,94305.35
2019-05-15T05:08:28.932Z,94297.82
2019-05-15T05:10:59.263Z,94299.28
2019-05-15T05:13:28.874Z,94298.41
2019-05-15T05:15:58.665Z,94297.40
2019-05-15T05:18:29.817Z,94294.98
2019-05-15T05:20:57.816Z,94287.91
2019-05-15T05:23:28.329Z,94287.59
2019-05-15T05:25:58.106Z,94286.73
2019-05-15T05:28:28.976Z,94291.84
2019-05-15T05:30:58.780Z,94289.55
2019-05-15T05:33:28.622Z,94294.53
2019-05-15T05:35:58.316Z,94297.56
2019-05-15T05:38:28.142Z,94298.13
2019-05-15T05:40:58.726Z,94296.61
2019-05-15T05:43:29.825Z,94301.22
2019-05-15T05:45:58.262Z,94298.46
2019-05-15T05:48:29.077Z,94297.56
2019-05-15T05:50:58.431Z,94294.20
2019-05-15T05:53:28.687Z,94289.24
2019-05-15T05:55:58.080Z,94286.98
2019-05-15T05:58:29.439Z,94290.41
2019-05-15T06:00:58.625Z,94285.77
2019-05-15T06:03:28.091Z,94289.44
2019-05-15T06:05:59.031Z,94290.48
2019-05-15T06:08:28.294Z,94285.59
2019-05-15T06:10:58.559Z,94290.68
2019-05-15T06:13:29.105Z,94285.80
2019-05-15T06:15:59.065Z,94291.01
2019-05-15T06:18:28.240Z,94281.26
2019-05-15T06:20:58.606Z,94295.58
2019-05-15T06:23:33.601Z,94292.67
2019-05-15T06:25:59.217Z,94287.11
2019-05-15T06:28:28.973Z,94288.10
2019-05-15T06:31:00.726Z,94284.47
2019-05-15T06:33:27.892Z,94284.14
2019-05-15T06:35:56.291Z,94277.29
2019-05-15T06:38:24.711Z,94288.36
2019-05-15T06:40:53.183Z,94277.27
2019-05-15T06:43:21.634Z,94280.50
2019-05-15T06:45:50.219Z,94276.19
2019-05-15T06:48:18.952Z,94282.61
2019-05-15T06:50:48.907Z,94283.59
2019-05-15T06:53:19.168Z,94275.75
2019-05-15T06:55:48.692Z,94283.12
2019-05-15T06:58:19.080Z,94272.08
2019-05-15T07:00:48.788Z,94279.66
2019-05-15T07:03:24.753Z,94276.27
2019-05-15T07:05:50.831Z,94280.77
2019-05-15T07:08:18.498Z,94279.17
2019-05-15T07:10:48.604Z,94273.16
2019-05-15T07:13:18.367Z,94263.05
2019-05-15T07:15:49.373Z,94259.73
2019-05-15T07:18:19.806Z,94266.45
2019-05-15T07:20:48.814Z,94265.66
2019-05-15T07:23:18.731Z,94264.74
2019-05-15T07:25:49.955Z,94264.60
2019-05-15T07:28:18.289Z,94261.80
2019-05-15T07:30:49.517Z,94263.38
2019-05-15T07:33:28.109Z,94265.25
2019-05-15T07:35:49.396Z,94265.88
2019-05-15T07:38:18.413Z,94255.14
2019-05-15T07:40:55.434Z,94249.81
2019-05-15T07:43:18.177Z,94246.21
2019-05-15T07:45:53.680Z,94245.02
2019-05-15T07:48:18.882Z,94242.23
2019-05-15T07:50:49.712Z,94250.58
2019-05-15T07:53:19.663Z,94243.62
2019-05-15T07:55:50.060Z,94239.78
2019-05-15T07:58:21.402Z,94238.37
2019-05-15T08:00:49.447Z,94248.78
2019-05-15T08:03:18.530Z,94251.31
2019-05-15T08:05:58.783Z,94249.20
2019-05-15T08:08:18.410Z,94239.12
2019-05-15T08:10:48.925Z,94239.30
2019-05-15T08:13:18.543Z,94237.52
2019-05-15T08:15:48.847Z,94232.67
2019-05-15T08:18:18.251Z,94235.16
2019-05-15T08:20:49.174Z,94235.53
2019-05-15T08:23:19.209Z,94232.86
2019-05-15T08:25:48.557Z,94234.62
2019-05-15T08:28:19.178Z,94233.25
2019-05-15T08:30:49.479Z,94236.50
2019-05-15T08:33:18.184Z,94246.91
2019-05-15T08:35:51.092Z,94223.52
2019-05-15T08:38:18.273Z,94240.78
2019-05-15T08:40:49.047Z,94237.57
2019-05-15T08:43:18.333Z,94230.55
2019-05-15T08:45:49.594Z,94240.47
2019-05-15T08:48:18.509Z,94242.41
2019-05-15T08:50:48.849Z,94242.69
2019-05-15T08:53:19.314Z,94248.46
2019-05-15T08:55:49.485Z,94240.52
2019-05-15T08:58:20.089Z,94235.08
2019-05-15T09:00:52.252Z,94241.56
2019-05-15T09:03:18.819Z,94222.49
2019-05-15T09:05:48.543Z,94231.94
2019-05-15T09:08:19.327Z,94241.45
2019-05-15T09:10:49.864Z,94223.10
2019-05-15T09:13:18.899Z,94230.78
2019-05-15T09:15:48.346Z,94225.20
2019-05-15T09:18:19.872Z,94221.66
2019-05-15T09:20:49.040Z,94224.64
2019-05-15T09:23:19.261Z,94221.31
2019-05-15T09:25:49.495Z,94207.67
2019-05-15T09:28:18.975Z,94208.95
2019-05-15T09:30:48.594Z,94213.32
2019-05-15T09:33:19.566Z,94205.34
2019-05-15T09:35:49.134Z,94207.36
2019-05-15T09:38:18.479Z,94206.22
2019-05-15T09:40:50.270Z,94197.92
2019-05-15T09:43:18.293Z,94207.94
2019-05-15T09:45:49.362Z,94213.88
2019-05-15T09:48:19.733Z,94207.54
2019-05-15T09:50:49.205Z,94207.55
2019-05-15T09:53:19.586Z,94214.75
2019-05-15T09:55:49.446Z,94201.20
2019-05-15T09:58:20.343Z,94200.89
2019-05-15T10:00:51.836Z,94213.38
2019-05-15T10:03:19.240Z,94191.39
2019-05-15T10:05:48.262Z,94199.80
2019-05-15T10:08:20.909Z,94203.59
2019-05-15T10:10:48.736Z,94207.99
2019-05-15T10:13:18.605Z,94200.63
2019-05-15T10:15:50.861Z,94190.20
2019-05-15T10:18:19.137Z,94188.86
2019-05-15T10:20:47.997Z,94181.99
2019-05-15T10:23:19.583Z,94192.88
2019-05-15T10:25:48.508Z,94184.89
2019-05-15T10:28:19.085Z,94182.00
2019-05-15T10:30:49.706Z,94170.87
2019-05-15T10:33:19.573Z,94172.11
2019-05-15T10:35:49.072Z,94177.81
2019-05-15T10:38:19.317Z,94178.39
2019-05-15T10:40:59.948Z,94177.05
2019-05-15T10:43:20.552Z,94187.10
2019-05-15T10:45:50.072Z,94172.11
2019-05-15T10:48:19.153Z,94176.03
2019-05-15T10:50:47.894Z,94168.53
2019-05-15T10:53:18.798Z,94175.56
2019-05-15T10:55:49.505Z,94176.10
2019-05-15T10:58:21.755Z,94159.03
2019-05-15T11:00:49.357Z,94166.92
2019-05-15T11:03:19.921Z,94154.61
2019-05-15T11:05:49.147Z,94148.39
2019-05-15T11:08:18.899Z,94167.58
2019-05-15T11:10:49.556Z,94159.66
2019-05-15T11:13:18.576Z,94176.66
2019-05-15T11:15:49.160Z,94156.13
2019-05-15T11:18:17.772Z,94157.27
2019-05-15T11:20:48.658Z,94168.89
2019-05-15T11:23:19.491Z,94180.77
2019-05-15T11:25:48.720Z,94161.35
2019-05-15T11:28:17.272Z,94159.88
2019-05-15T11:30:48.563Z,94154.85
2019-05-15T11:33:18.549Z,94148.80
2019-05-15T11:35:57.981Z,94142.88
2019-05-15T11:38:16.575Z,94150.61
2019-05-15T11:40:45.681Z,94135.48
2019-05-15T11:43:14.223Z,94149.69
2019-05-15T11:45:42.774Z,94133.25
2019-05-15T11:48:11.240Z,94148.16
2019-05-15T11:50:40.260Z,94151.41
2019-05-15T11:53:09.023Z,94137.41
2019-05-15T11:55:38.717Z,94145.36
2019-05-15T11:58:09.291Z,94141.40
2019-05-15T12:00:38.380Z,94143.27
2019-05-15T12:03:09.056Z,94138.28
2019-05-15T12:05:38.545Z,94149.51
2019-05-15T12:08:09.039Z,94129.11
2019-05-15T12:10:38.883Z,94142.08
2019-05-15T12:13:09.828Z,94151.62
2019-05-15T12:15:38.926Z,94141.30
2019-05-15T12:18:08.831Z,94151.39
2019-05-15T12:20:39.005Z,94142.38
2019-05-15T12:23:09.018Z,94144.91
2019-05-15T12:25:39.328Z,94138.48
2019-05-15T12:28:09.614Z,94152.49
2019-05-15T12:30:40.244Z,94149.02
2019-05-15T12:33:09.740Z,94141.22
2019-05-15T12:35:40.055Z,94141.67
2019-05-15T12:38:10.059Z,94131.08
2019-05-15T13:00:40.663Z,94109.13
2019-05-15T13:03:09.318Z,94127.91
2019-05-15T13:05:39.253Z,94119.14
2019-05-15T13:08:08.531Z,94125.83
2019-05-15T13:10:38.546Z,94127.19
2019-05-15T13:13:09.659Z,94124.89
2019-05-15T13:15:40.949Z,94133.38
2019-05-15T13:18:13.790Z,94128.34
2019-05-15T13:20:38.486Z,94119.19
2019-05-15T13:23:08.091Z,94114.14
2019-05-15T13:25:39.393Z,94122.28
2019-05-15T13:28:08.924Z,94118.89
2019-05-15T13:30:40.431Z,94116.39
2019-05-15T13:33:09.977Z,94116.30
2019-05-15T13:35:38.131Z,94102.52
2019-05-15T13:38:09.557Z,94118.88
2019-05-15T13:40:38.981Z,94119.45
2019-05-15T13:43:08.299Z,94117.47
2019-05-15T13:45:38.602Z,94108.84
2019-05-15T13:48:08.990Z,94110.17
2019-05-15T13:50:40.170Z,94110.50
2019-05-15T13:53:10.561Z,94112.61
2019-05-15T13:55:42.245Z,94118.33
2019-05-15T13:58:09.098Z,94118.59
2019-05-15T14:00:39.038Z,94114.26
2019-05-15T14:03:09.181Z,94120.48
2019-05-15T14:05:38.418Z,94118.33
2019-05-15T14:08:07.298Z,94126.73
2019-05-15T14:10:38.342Z,94118.69
2019-05-15T14:13:06.149Z,94109.21
2019-05-15T14:15:34.877Z,94113.06
2019-05-15T14:18:03.294Z,94100.77
2019-05-15T14:20:31.720Z,94104.25
2019-05-15T14:23:00.187Z,94103.55
2019-05-15T14:25:28.879Z,94099.08
2019-05-15T14:27:59.402Z,94099.92
2019-05-15T14:30:29.350Z,94103.09
2019-05-15T14:32:59.780Z,94096.62
2019-05-15T14:35:28.273Z,94099.84
2019-05-15T14:38:05.479Z,94104.62
2019-05-15T14:40:27.318Z,94103.14
2019-05-15T14:42:55.775Z,94092.00
2019-05-15T14:45:24.380Z,94099.43
2019-05-15T14:47:52.879Z,94095.82
2019-05-15T14:50:21.429Z,94092.11
2019-05-15T14:52:50.236Z,94100.84
2019-05-15T14:55:18.673Z,94094.77
2019-05-15T14:57:48.759Z,94104.59
2019-05-15T15:00:19.868Z,94088.83
2019-05-15T15:02:49.335Z,94095.50
2019-05-15T15:05:21.564Z,94099.20
2019-05-15T15:07:49.216Z,94089.45
2019-05-15T15:10:20.059Z,94090.50
2019-05-15T15:12:50.002Z,94090.25
2019-05-15T15:15:18.759Z,94091.03
2019-05-15T15:17:49.287Z,94089.01
2019-05-15T15:20:17.885Z,94086.20
2019-05-15T15:22:48.557Z,94091.73
2019-05-15T15:25:17.688Z,94086.39
2019-05-15T15:27:47.980Z,94094.78
2019-05-15T15:30:18.769Z,94083.91
2019-05-15T15:32:48.990Z,94083.77
2019-05-15T15:35:16.955Z,94076.91
2019-05-15T15:37:45.442Z,94077.27
2019-05-15T15:40:14.102Z,94078.52
2019-05-15T15:42:42.565Z,94082.84
2019-05-15T15:45:12.748Z,94088.27
2019-05-15T15:47:41.311Z,94086.81
2019-05-15T15:50:10.284Z,94088.87
2019-05-15T15:52:39.148Z,94093.02
2019-05-15T15:55:09.165Z,94092.45
2019-05-15T15:57:39.772Z,94090.57
2019-05-15T16:00:09.857Z,94091.64
2019-05-15T16:02:41.436Z,94091.59
2019-05-15T16:05:11.126Z,94090.64
2019-05-15T16:07:39.734Z,94093.70
2019-05-15T16:10:08.755Z,94090.03
2019-05-15T16:12:38.818Z,94089.38
2019-05-15T16:15:09.329Z,94092.13
2019-05-15T16:17:38.796Z,94083.38
2019-05-15T16:20:09.830Z,94084.08
2019-05-15T16:22:43.097Z,94087.96
2019-05-15T16:25:11.568Z,94082.56
2019-05-15T16:27:40.061Z,94087.47
2019-05-15T16:30:10.874Z,94090.24
2019-05-15T16:32:40.732Z,94075.83
2019-05-15T16:35:09.799Z,94084.64
2019-05-15T16:37:39.054Z,94087.52
2019-05-15T16:40:09.011Z,94079.02
2019-05-15T16:42:38.523Z,94082.38
2019-05-15T16:45:10.634Z,94081.94
2019-05-15T16:47:40.133Z,94086.95
2019-05-15T16:50:09.391Z,94087.48
2019-05-15T16:52:38.877Z,94083.50
2019-05-15T16:55:09.784Z,94080.40
2019-05-15T16:57:39.079Z,94075.27
2019-05-15T17:00:10.082Z,94076.45
2019-05-15T17:02:39.441Z,94076.38
2019-05-15T17:05:09.097Z,94084.84
2019-05-15T17:07:38.872Z,94074.84
2019-05-15T17:10:08.526Z,94071.11
2019-05-15T17:12:38.816Z,94072.53
2019-05-15T17:15:09.345Z,94071.89
2019-05-15T17:17:39.159Z,94063.92
2019-05-15T17:20:10.193Z,94064.91
2019-05-15T17:22:38.994Z,94066.89
2019-05-15T17:25:09.328Z,94069.22
2019-05-15T17:27:38.262Z,94067.77
2019-05-15T17:30:09.287Z,94066.21
2019-05-15T17:32:39.208Z,94063.52
2019-05-15T17:35:09.755Z,94062.85
2019-05-15T17:37:38.877Z,94061.58
2019-05-15T17:40:08.483Z,94063.87
2019-05-15T17:42:38.993Z,94063.66
2019-05-15T17:45:09.073Z,94067.13
2019-05-15T17:47:38.732Z,94059.34
2019-05-15T17:50:09.871Z,94064.16
2019-05-15T17:52:39.033Z,94070.26
2019-05-15T17:55:07.920Z,94072.02
2019-05-15T17:57:38.626Z,94077.37
2019-05-15T18:00:12.210Z,94074.75
2019-05-15T18:02:39.110Z,94070.81
2019-05-15T18:05:08.455Z,94074.33
2019-05-15T18:07:39.040Z,94070.28
2019-05-15T18:10:08.567Z,94069.02
2019-05-15T18:12:38.834Z,94069.40
2019-05-15T18:15:09.962Z,94067.84
2019-05-15T18:17:40.909Z,94071.33
2019-05-15T18:20:10.687Z,94070.42
2019-05-15T18:22:39.169Z,94075.70
2019-05-15T18:25:09.020Z,94077.30
2019-05-15T18:27:38.906Z,94071.89
2019-05-15T18:30:09.461Z,94080.09
2019-05-15T18:32:39.208Z,94074.59
2019-05-15T18:35:08.439Z,94070.92
2019-05-15T18:37:39.458Z,94075.34
2019-05-15T18:40:09.800Z,94066.94
2019-05-15T18:42:39.473Z,94060.97
2019-05-15T18:45:09.053Z,94062.91
2019-05-15T18:47:38.921Z,94059.91
2019-05-15T18:50:12.736Z,94057.56
2019-05-15T18:52:38.676Z,94056.74
2019-05-15T18:55:08.142Z,94063.52
2019-05-15T18:57:38.480Z,94065.26
2019-05-15T19:00:08.808Z,94066.78
2019-05-15T19:02:39.183Z,94067.23
2019-05-15T19:05:08.530Z,94062.30
2019-05-15T19:07:40.307Z,94068.39
2019-05-15T19:10:10.123Z,94066.12
2019-05-15T19:12:38.631Z,94065.08
2019-05-15T19:15:09.981Z,94066.95
2019-05-15T19:17:39.095Z,94067.66
2019-05-15T19:20:09.116Z,94069.14
2019-05-15T19:22:40.428Z,94075.37
2019-05-15T19:25:09.092Z,94070.87
2019-05-15T19:27:39.195Z,94082.31
2019-05-15T19:30:10.063Z,94079.74
2019-05-15T19:32:39.006Z,94081.42
2019-05-15T19:35:08.564Z,94081.13
2019-05-15T19:37:38.369Z,94078.63
2019-05-15T19:40:08.518Z,94082.19
2019-05-15T19:42:38.373Z,94083.53
2019-05-15T19:45:08.902Z,94080.33
2019-05-15T19:47:38.823Z,94083.86
2019-05-15T19:50:08.698Z,94078.70
2019-05-15T19:52:37.300Z,94079.22
2019-05-15T19:55:08.621Z,94082.45
2019-05-15T19:57:38.712Z,94075.17
2019-05-15T20:00:08.806Z,94074.19
2019-05-15T20:02:38.169Z,94069.95
2019-05-15T20:05:09.111Z,94067.95
2019-05-15T20:07:38.957Z,94069.27
2019-05-15T20:10:08.229Z,94070.59
2019-05-15T20:12:38.803Z,94065.44
2019-05-15T20:15:09.123Z,94074.00
2019-05-15T20:17:38.596Z,94067.41
2019-05-15T20:20:09.291Z,94067.63
2019-05-15T20:22:40.375Z,94061.95
2019-05-15T20:25:08.363Z,94059.66
2019-05-15T20:27:39.174Z,94055.18
2019-05-15T20:30:09.360Z,94057.28
2019-05-15T20:32:38.751Z,94052.89
2019-05-15T20:35:08.636Z,94058.11
2019-05-15T20:37:41.797Z,94057.26
2019-05-15T20:40:09.900Z,94055.79
2019-05-15T20:42:38.758Z,94052.27
2019-05-15T20:45:11.799Z,94056.83
2019-05-15T20:47:38.983Z,94060.45
2019-05-15T20:50:08.860Z,94056.36
2019-05-15T20:52:39.365Z,94054.85
2019-05-15T20:55:08.990Z,94063.57
2019-05-15T20:57:40.278Z,94055.63
2019-05-15T21:00:10.590Z,94056.28
2019-05-15T21:02:39.447Z,94052.06
2019-05-15T21:05:08.861Z,94042.45
2019-05-15T21:07:42.155Z,94045.86
2019-05-15T21:10:08.879Z,94045.53
2019-05-15T21:12:40.915Z,94036.91
2019-05-15T21:15:09.442Z,94031.86
2019-05-15T21:17:39.626Z,94029.27
2019-05-15T21:20:09.531Z,94029.91
2019-05-15T21:22:40.319Z,94025.67
2019-05-15T21:25:10.899Z,94025.37
2019-05-15T21:27:42.623Z,94026.33
2019-05-15T21:30:09.831Z,94024.05
2019-05-15T21:32:38.498Z,94028.29
2019-05-15T21:35:09.093Z,94023.74
2019-05-15T21:37:38.904Z,94023.74
2019-05-15T21:40:09.005Z,94018.52
2019-05-15T21:42:38.839Z,94018.84
2019-05-15T21:45:14.274Z,94005.64
2019-05-15T21:47:40.012Z,94009.42
2019-05-15T21:50:09.173Z,94009.08
2019-05-15T21:52:38.943Z,94010.21
2019-05-15T21:55:09.754Z,94003.21
2019-05-15T21:57:40.318Z,94002.32
2019-05-15T22:00:14.494Z,94015.78
2019-05-15T22:02:43.068Z,94005.00
2019-05-15T22:05:11.727Z,94009.05
2019-05-15T22:07:40.228Z,94001.34
2019-05-15T22:10:11.044Z,94003.17
2019-05-15T22:12:39.397Z,93999.98
2019-05-15T22:15:09.222Z,94002.28
2019-05-15T22:17:38.885Z,93992.52
2019-05-15T22:20:08.640Z,93995.84
2019-05-15T22:22:37.540Z,94004.88
2019-05-15T22:25:11.272Z,93995.31
2019-05-15T22:27:39.697Z,93996.34
2019-05-15T22:30:09.571Z,93995.05
2019-05-15T22:32:41.676Z,93991.16
2019-05-15T22:35:13.672Z,93985.63
2019-05-15T22:37:41.489Z,93983.23
2019-05-15T22:40:10.577Z,93987.03
2019-05-15T22:42:39.667Z,93977.80
2019-05-15T22:45:11.683Z,93976.76
2019-05-15T22:47:39.313Z,93974.80
2019-05-15T22:50:08.552Z,93973.41
2019-05-15T22:52:38.949Z,93965.89
2019-05-15T22:55:08.355Z,93963.98
2019-05-15T22:57:38.829Z,93956.53
2019-05-15T23:00:09.681Z,93959.83
2019-05-15T23:02:38.258Z,93955.64
2019-05-15T23:05:23.468Z,93952.04
2019-05-15T23:07:39.028Z,93951.28
2019-05-15T23:10:09.089Z,93942.84
2019-05-15T23:12:38.286Z,93941.17
2019-05-15T23:15:08.727Z,93939.98
2019-05-15T23:17:38.319Z,93937.52
2019-05-15T23:20:08.936Z,93933.94
2019-05-15T23:22:38.521Z,93921.33
2019-05-15T23:25:07.440Z,93910.31
2019-05-15T23:27:38.075Z,93908.69
2019-05-15T23:30:09.098Z,93909.80
2019-05-15T23:32:39.010Z,93901.22
2019-05-15T23:35:07.612Z,93887.75
2019-05-15T23:37:36.041Z,93887.41
2019-05-15T23:40:08.541Z,93885.43
2019-05-15T23:42:39.047Z,93880.59
2019-05-15T23:45:07.057Z,93867.59
2019-05-15T23:47:35.476Z,93872.95
2019-05-15T23:50:04.540Z,93866.48
2019-05-15T23:52:32.997Z,93863.59
2019-05-15T23:55:01.410Z,93864.55
2019-05-15T23:57:30.772Z,93853.20
2019-05-15T23:59:59.197Z,93848.02
